Time;durP1;ratioP1;P1;durP2;ratioP2;P2;SDS_P1;SDS_P2;PMS_P1;PMS_P2;Temp;Humidity;BMP_temperature;BMP_pressure;BME280_temperature;BME280_humidity;BME280_pressure;Samples;Min_cycle;Max_cycle;Signal;HPM_P1;HPM_P2
2023/10/10 00:01:14;;;;;;;;;;;15.70;99.90;;;;;;5000090;28;19925;-85
2023/10/10 00:03:42;;;;;;;;;;;15.70;99.90;;;;;;4985289;28;19937;-85
2023/10/10 00:06:08;;;;;;;;;;;15.70;99.90;;;;;;5019899;28;19926;-85
2023/10/10 00:08:36;;;;;;;;;;;15.70;99.90;;;;;;4987444;28;19988;-85
2023/10/10 00:11:15;;;;;;;;;;;15.70;99.90;;;;;;5035072;28;19932;-85
2023/10/10 00:13:52;;;;;;;;;;;15.70;99.90;;;;;;4986323;28;19930;-85
2023/10/10 00:16:35;;;;;;;;;;;15.70;99.90;;;;;;5008534;28;20004;-85
2023/10/10 00:19:28;;;;;;;;;;;15.70;99.90;;;;;;4985051;28;19930;-85
2023/10/10 00:21:54;;;;;;;;;;;15.70;99.90;;;;;;4989852;28;19925;-85
2023/10/10 00:24:20;;;;;;;;;;;15.70;99.90;;;;;;4976574;28;19973;-85
2023/10/10 00:26:47;;;;;;;;;;;15.70;99.90;;;;;;5002914;28;19972;-85
2023/10/10 00:29:13;;;;;;;;;;;15.60;99.90;;;;;;5005121;28;19985;-85
2023/10/10 00:31:43;;;;;;;;;;;15.60;99.90;;;;;;5003215;28;19969;-85
2023/10/10 00:34:09;;;;;;;;;;;15.70;99.90;;;;;;5018771;28;20369;-85
2023/10/10 00:36:35;;;;;;;;;;;15.70;99.90;;;;;;4993201;28;19971;-85
2023/10/10 00:41:44;;;;;;;;;;;15.70;99.90;;;;;;5023112;28;19941;-85
2023/10/10 00:44:17;;;;;;;;;;;15.70;99.90;;;;;;5008132;28;20016;-86
2023/10/10 00:47:03;;;;;;;;;;;15.60;99.90;;;;;;4972949;28;19932;-85
2023/10/10 00:49:31;;;;;;;;;;;15.70;99.90;;;;;;4987078;28;19931;-85
2023/10/10 00:52:01;;;;;;;;;;;15.70;99.90;;;;;;5018228;28;19932;-85
2023/10/10 00:54:30;;;;;;;;;;;15.70;99.90;;;;;;5016532;28;19926;-85
2023/10/10 00:56:57;;;;;;;;;;;15.70;99.90;;;;;;5004841;28;20013;-85
2023/10/10 00:59:34;;;;;;;;;;;15.70;99.90;;;;;;4988328;28;19936;-86
2023/10/10 01:02:02;;;;;;;;;;;15.70;99.90;;;;;;4997039;28;20366;-85
2023/10/10 01:04:49;;;;;;;;;;;15.70;99.90;;;;;;4986633;28;19929;-85
2023/10/10 01:07:18;;;;;;;;;;;15.70;99.90;;;;;;5000250;28;19936;-85
2023/10/10 01:09:55;;;;;;;;;;;15.70;99.90;;;;;;4988918;28;19929;-85
2023/10/10 01:12:22;;;;;;;;;;;15.60;99.90;;;;;;5001763;28;19961;-85
2023/10/10 01:14:54;;;;;;;;;;;15.70;99.90;;;;;;4988524;28;20412;-85
2023/10/10 01:17:20;;;;;;;;;;;15.60;99.90;;;;;;5000623;28;20139;-86
2023/10/10 01:19:46;;;;;;;;;;;15.70;99.90;;;;;;4986206;28;20438;-85
2023/10/10 01:22:22;;;;;;;;;;;15.60;99.90;;;;;;5001826;28;19930;-85
2023/10/10 01:24:53;;;;;;;;;;;15.70;99.90;;;;;;5015498;28;20778;-85
2023/10/10 01:27:21;;;;;;;;;;;15.70;99.90;;;;;;4997639;28;19934;-86
2023/10/10 01:29:56;;;;;;;;;;;15.70;99.90;;;;;;4988738;28;19930;-85
2023/10/10 01:32:21;;;;;;;;;;;15.70;99.90;;;;;;5035714;28;19933;-86
2023/10/10 01:34:47;;;;;;;;;;;15.70;99.90;;;;;;5003647;28;19925;-86
2023/10/10 01:37:22;;;;;;;;;;;15.70;99.90;;;;;;4996554;28;19949;-85
2023/10/10 01:40:16;;;;;;;;;;;15.70;99.90;;;;;;5019187;28;20387;-86
2023/10/10 01:42:53;;;;;;;;;;;15.70;99.90;;;;;;4993929;28;19940;-86
2023/10/10 01:45:26;;;;;;;;;;;15.70;99.90;;;;;;4982855;28;19940;-86
2023/10/10 01:48:02;;;;;;;;;;;15.70;99.90;;;;;;4995194;28;19932;-86
2023/10/10 01:50:30;;;;;;;;;;;15.70;99.90;;;;;;4990921;28;19925;-86
2023/10/10 01:52:56;;;;;;;;;;;15.70;99.90;;;;;;4989659;28;19948;-86
2023/10/10 01:55:24;;;;;;;;;;;15.60;99.90;;;;;;4991131;28;19929;-86
2023/10/10 01:57:53;;;;;;;;;;;15.60;99.90;;;;;;5016703;28;20029;-86
2023/10/10 02:00:26;;;;;;;;;;;15.70;99.90;;;;;;4980087;28;20364;-85
2023/10/10 02:02:55;;;;;;;;;;;15.60;99.90;;;;;;5005333;28;19932;-85
2023/10/10 02:08:09;;;;;;;;;;;15.60;99.90;;;;;;5002065;28;20384;-86
2023/10/10 02:10:36;;;;;;;;;;;15.50;99.90;;;;;;5009223;28;20032;-85
2023/10/10 02:13:06;;;;;;;;;;;15.50;99.90;;;;;;5004973;28;19953;-86
2023/10/10 02:15:36;;;;;;;;;;;15.50;99.90;;;;;;4989448;28;19929;-86
2023/10/10 02:18:05;;;;;;;;;;;15.50;99.90;;;;;;5006566;28;19926;-86
2023/10/10 02:23:08;;;;;;;;;;;15.40;99.90;;;;;;5034552;28;19935;-86
2023/10/10 02:28:03;;;;;;;;;;;15.30;99.90;;;;;;4987552;28;19932;-86
2023/10/10 02:30:36;;;;;;;;;;;15.20;99.90;;;;;;4979517;28;19929;-86
2023/10/10 02:33:05;;;;;;;;;;;15.20;99.90;;;;;;4995258;28;19985;-86
2023/10/10 02:35:42;;;;;;;;;;;15.10;99.90;;;;;;5008879;28;19936;-86
2023/10/10 02:38:11;;;;;;;;;;;15.10;99.90;;;;;;5002544;28;19948;-86
2023/10/10 02:40:42;;;;;;;;;;;15.10;99.90;;;;;;4976929;28;19934;-86
2023/10/10 02:43:33;;;;;;;;;;;15.00;99.90;;;;;;4986648;28;19929;-86
2023/10/10 02:46:05;;;;;;;;;;;15.00;99.90;;;;;;5014450;28;20323;-86
2023/10/10 02:48:34;;;;;;;;;;;15.10;99.90;;;;;;5006785;28;20016;-85
2023/10/10 02:51:03;;;;;;;;;;;15.10;99.90;;;;;;5015070;28;20004;-85
2023/10/10 02:53:32;;;;;;;;;;;15.00;99.90;;;;;;4990249;28;20389;-86
2023/10/10 02:56:01;;;;;;;;;;;15.10;99.90;;;;;;4988615;28;20351;-86
2023/10/10 02:58:28;;;;;;;;;;;15.10;99.90;;;;;;5020327;28;20531;-86
2023/10/10 03:00:57;;;;;;;;;;;15.10;99.90;;;;;;5020933;28;19929;-86
2023/10/10 03:03:26;;;;;;;;;;;15.10;99.90;;;;;;4994072;28;19925;-86
2023/10/10 03:05:53;;;;;;;;;;;15.10;99.90;;;;;;5005171;28;19925;-86
2023/10/10 03:08:35;;;;;;;;;;;15.10;99.90;;;;;;4988955;28;19932;-86
2023/10/10 03:11:01;;;;;;;;;;;15.10;99.90;;;;;;5000686;28;19933;-86
2023/10/10 03:13:30;;;;;;;;;;;15.10;99.90;;;;;;4998773;28;19925;-86
2023/10/10 03:16:11;;;;;;;;;;;15.10;99.90;;;;;;4987626;28;20270;-86
2023/10/10 03:18:37;;;;;;;;;;;15.10;99.90;;;;;;4987030;28;19955;-86
2023/10/10 03:21:12;;;;;;;;;;;15.10;99.90;;;;;;4996698;28;19937;-86
2023/10/10 03:23:43;;;;;;;;;;;15.10;99.90;;;;;;4966801;28;19928;-86
2023/10/10 03:26:18;;;;;;;;;;;15.10;99.90;;;;;;5005467;28;20007;-86
2023/10/10 03:28:47;;;;;;;;;;;15.10;99.90;;;;;;5010094;28;19929;-86
2023/10/10 05:25:22;;;;;;;;;;;14.80;99.90;;;;;;4961484;28;19932;-85
2023/10/10 05:27:48;;;;;;;;;;;14.80;99.90;;;;;;4984873;28;20015;-85
2023/10/10 05:30:23;;;;;;;;;;;14.80;99.90;;;;;;5004058;28;19930;-85
2023/10/10 05:33:02;;;;;;;;;;;14.70;99.90;;;;;;4991942;28;19925;-85
2023/10/10 05:35:28;;;;;;;;;;;14.70;99.90;;;;;;4992950;28;19925;-85
2023/10/10 05:37:54;;;;;;;;;;;14.60;99.90;;;;;;4985409;28;19949;-85
2023/10/10 05:40:20;;;;;;;;;;;14.60;99.90;;;;;;4990318;28;19976;-85
2023/10/10 05:42:45;;;;;;;;;;;14.60;99.90;;;;;;5011018;28;19926;-85
2023/10/10 05:45:13;;;;;;;;;;;14.60;99.90;;;;;;4982107;28;19925;-86
2023/10/10 05:47:42;;;;;;;;;;;14.70;99.90;;;;;;5003350;28;19953;-86
2023/10/10 05:50:10;;;;;;;;;;;14.70;99.90;;;;;;4991826;28;19930;-86
2023/10/10 05:52:38;;;;;;;;;;;14.70;99.90;;;;;;4984072;28;19961;-85
2023/10/10 05:55:10;;;;;;;;;;;14.70;99.90;;;;;;5004108;28;19983;-86
2023/10/10 05:57:36;;;;;;;;;;;14.60;99.90;;;;;;5005593;28;19997;-86
2023/10/10 06:00:13;;;;;;;;;;;14.70;99.90;;;;;;4986030;28;19965;-86
2023/10/10 06:02:41;;;;;;;;;;;14.70;99.90;;;;;;4988257;28;19936;-85
2023/10/10 06:05:08;;;;;;;;;;;14.70;99.90;;;;;;4998228;28;19926;-86
2023/10/10 06:07:37;;;;;;;;;;;14.70;99.90;;;;;;4995392;28;19930;-85
2023/10/10 06:10:06;;;;;;;;;;;14.70;99.90;;;;;;4981008;28;19937;-86
2023/10/10 06:12:33;;;;;;;;;;;14.80;99.90;;;;;;4994635;28;19950;-86
2023/10/10 06:15:05;;;;;;;;;;;14.80;99.90;;;;;;4990025;28;19940;-86
2023/10/10 06:17:33;;;;;;;;;;;14.80;99.90;;;;;;4994105;28;19985;-86
2023/10/10 06:19:59;;;;;;;;;;;14.90;99.90;;;;;;4998260;28;19925;-85
2023/10/10 06:22:29;;;;;;;;;;;14.80;99.90;;;;;;4976870;28;19926;-85
2023/10/10 06:24:57;;;;;;;;;;;14.90;99.90;;;;;;5007459;28;19925;-86
2023/10/10 06:27:29;;;;;;;;;;;14.90;99.90;;;;;;4983713;28;19936;-85
2023/10/10 06:29:58;;;;;;;;;;;14.90;99.90;;;;;;4993403;28;20016;-85
2023/10/10 06:32:30;;;;;;;;;;;14.90;99.90;;;;;;5009188;28;19926;-85
2023/10/10 06:35:52;;;;;;;;;;;15.00;99.90;;;;;;5015555;28;19952;-87
2023/10/10 06:37:43;;;;;;;;;;;15.00;99.90;;;;;;4998079;28;19926;-85
2023/10/10 06:40:09;;;;;;;;;;;15.10;99.90;;;;;;4984493;28;19984;-85
2023/10/10 06:42:35;;;;;;;;;;;15.10;99.90;;;;;;4989097;28;19925;-85
2023/10/10 06:45:11;;;;;;;;;;;15.10;99.90;;;;;;5004095;28;19944;-84
2023/10/10 06:47:39;;;;;;;;;;;15.10;99.90;;;;;;4971015;28;20342;-85
2023/10/10 06:50:11;;;;;;;;;;;15.10;99.90;;;;;;4970952;28;19930;-85
2023/10/10 06:52:37;;;;;;;;;;;15.20;99.90;;;;;;4998651;28;19929;-84
2023/10/10 06:55:10;;;;;;;;;;;15.20;99.90;;;;;;5003068;28;19948;-84
2023/10/10 06:57:37;;;;;;;;;;;15.20;99.90;;;;;;4972463;28;20026;-84
2023/10/10 07:02:47;;;;;;;;;;;15.30;99.90;;;;;;4999366;28;19926;-84
2023/10/10 07:05:15;;;;;;;;;;;15.40;99.90;;;;;;5012555;28;19926;-84
2023/10/10 07:07:44;;;;;;;;;;;15.50;99.90;;;;;;4962606;28;19934;-84
2023/10/10 07:10:10;;;;;;;;;;;15.50;99.90;;;;;;4978303;28;19932;-84
2023/10/10 07:12:38;;;;;;;;;;;15.50;99.90;;;;;;4967061;28;19930;-84
2023/10/10 07:15:06;;;;;;;;;;;15.60;99.90;;;;;;4989727;28;19957;-84
2023/10/10 07:17:32;;;;;;;;;;;15.60;99.90;;;;;;4994555;28;19953;-84
2023/10/10 07:22:33;;;;;;;;;;;15.70;99.90;;;;;;5002821;28;19933;-85
2023/10/10 07:25:07;;;;;;;;;;;15.70;99.90;;;;;;4992443;28;19934;-84
2023/10/10 07:27:36;;;;;;;;;;;15.80;99.90;;;;;;4981926;28;19932;-84
2023/10/10 07:30:16;;;;;;;;;;;15.80;99.90;;;;;;4985034;28;20008;-84
2023/10/10 07:32:44;;;;;;;;;;;15.80;99.90;;;;;;4989500;28;19929;-85
2023/10/10 07:35:14;;;;;;;;;;;15.90;99.90;;;;;;4983980;28;19937;-85
2023/10/10 07:37:44;;;;;;;;;;;15.90;99.90;;;;;;4987328;28;19930;-85
2023/10/10 07:43:02;;;;;;;;;;;15.90;99.90;;;;;;5001759;28;19957;-85
2023/10/10 07:45:52;;;;;;;;;;;15.90;99.90;;;;;;4972098;28;19930;-85
2023/10/10 07:58:49;;;;;;;;;;;16.10;99.90;;;;;;5609464;23;19935;-84
2023/10/10 08:01:18;;;;;;;;;;;16.10;99.90;;;;;;4865486;29;19963;-82
2023/10/10 08:03:45;;;;;;;;;;;16.10;99.90;;;;;;4863536;29;19953;-83
2023/10/10 08:06:11;;;;;;;;;;;16.10;99.90;;;;;;4863766;29;19932;-83
2023/10/10 08:08:39;;;;;;;;;;;16.20;99.90;;;;;;4863309;29;19929;-88
2023/10/10 08:11:12;;;;;;;;;;;16.20;99.90;;;;;;4863855;29;19928;-83
2023/10/10 08:13:38;;;;;;;;;;;16.30;99.90;;;;;;4863966;29;19928;-83
2023/10/10 08:16:04;;;;;;;;;;;16.30;99.90;;;;;;4864159;29;19928;-83
2023/10/10 08:18:41;;;;;;;;;;;16.40;99.90;;;;;;4863767;29;20371;-83
2023/10/10 08:21:10;;;;;;;;;;;16.50;99.90;;;;;;4864036;29;19932;-83
2023/10/10 08:23:43;;;;;;;;;;;16.60;99.90;;;;;;4863376;29;19983;-83
2023/10/10 08:26:17;;;;;;;;;;;16.70;99.90;;;;;;4865386;29;19928;-82
2023/10/10 08:28:46;;;;;;;;;;;16.80;99.90;;;;;;4865922;29;19945;-84
2023/10/10 08:31:13;;;;;;;;;;;16.90;99.90;;;;;;4864783;29;19928;-83
2023/10/10 08:33:40;;;;;;;;;;;17.00;99.90;;;;;;4866318;29;19931;-87
2023/10/10 08:36:05;;;;;;;;;;;17.00;99.90;;;;;;4865568;29;19929;-83
2023/10/10 08:38:31;;;;;;;;;;;17.10;99.90;;;;;;4862654;29;19928;-84
2023/10/10 08:41:01;;;;;;;;;;;17.10;99.90;;;;;;4863124;29;19928;-85
2023/10/10 08:43:31;;;;;;;;;;;17.20;99.90;;;;;;4862429;29;19932;-84
2023/10/10 08:45:58;;;;;;;;;;;17.30;99.90;;;;;;4862875;29;19935;-84
2023/10/10 08:48:26;;;;;;;;;;;17.40;99.90;;;;;;4862725;29;19932;-83
2023/10/10 08:50:55;;;;;;;;;;;17.50;99.90;;;;;;4862901;29;19986;-82
2023/10/10 08:53:24;;;;;;;;;;;17.60;99.90;;;;;;4861677;29;20264;-86
2023/10/10 08:55:56;;;;;;;;;;;17.70;99.90;;;;;;4862084;29;20023;-84
2023/10/10 08:58:22;;;;;;;;;;;17.80;99.90;;;;;;4863142;29;19935;-84
2023/10/10 09:00:48;;;;;;;;;;;18.00;99.90;;;;;;4862719;29;20035;-83
2023/10/10 09:03:14;;;;;;;;;;;18.00;99.90;;;;;;4862435;29;20371;-83
2023/10/10 09:05:40;;;;;;;;;;;18.10;99.90;;;;;;4862494;29;19979;-84
2023/10/10 09:08:14;;;;;;;;;;;18.20;99.90;;;;;;4862441;29;19928;-85
2023/10/10 09:10:40;;;;;;;;;;;18.20;99.90;;;;;;4862692;29;20256;-87
2023/10/10 09:13:07;;;;;;;;;;;18.30;99.90;;;;;;4861533;29;20019;-88
2023/10/10 09:15:34;;;;;;;;;;;18.40;99.90;;;;;;4861958;29;20367;-83
2023/10/10 09:18:12;;;;;;;;;;;18.50;99.90;;;;;;4862462;29;19979;-85
2023/10/10 09:20:38;;;;;;;;;;;18.50;99.90;;;;;;4860724;29;20390;-85
2023/10/10 09:23:21;;;;;;;;;;;18.60;99.90;;;;;;4861510;29;20019;-85
2023/10/10 09:26:12;;;;;;;;;;;18.70;99.90;;;;;;4862100;29;19971;-84
2023/10/10 09:29:03;;;;;;;;;;;18.90;99.90;;;;;;4860685;29;19928;-84
2023/10/10 09:31:31;;;;;;;;;;;19.20;99.90;;;;;;4861231;29;19984;-85
2023/10/10 09:34:06;;;;;;;;;;;19.40;99.90;;;;;;4862238;29;20026;-86
2023/10/10 09:36:38;;;;;;;;;;;19.70;99.90;;;;;;4862024;29;19935;-84
2023/10/10 09:39:08;;;;;;;;;;;19.90;99.90;;;;;;4862042;29;19929;-82
2023/10/10 09:47:13;;;;;;;;;;;20.40;99.90;;;;;;4861581;29;20299;-84
2023/10/10 09:57:42;;;;;;;;;;;20.60;99.90;;;;;;4861731;29;20039;-84
2023/10/10 10:00:15;;;;;;;;;;;20.50;99.90;;;;;;4861229;29;20062;-86
2023/10/10 10:02:48;;;;;;;;;;;20.50;99.90;;;;;;4861646;29;20026;-87
2023/10/10 10:05:17;;;;;;;;;;;20.40;99.90;;;;;;4861667;29;19954;-86
2023/10/10 10:07:58;;;;;;;;;;;20.40;99.90;;;;;;4860714;29;20379;-85
2023/10/10 10:10:34;;;;;;;;;;;20.50;99.90;;;;;;4860768;29;19928;-83
2023/10/10 10:13:13;;;;;;;;;;;20.40;99.90;;;;;;4862055;29;19932;-88
2023/10/10 10:15:51;;;;;;;;;;;20.40;99.90;;;;;;4862300;29;20327;-85
2023/10/10 10:18:27;;;;;;;;;;;20.30;99.90;;;;;;4861375;29;19929;-83
2023/10/10 10:21:29;;;;;;;;;;;20.30;99.90;;;;;;4861587;29;19936;-83
2023/10/10 10:24:14;;;;;;;;;;;20.20;99.90;;;;;;4859646;29;19928;-84
2023/10/10 10:26:44;;;;;;;;;;;20.10;99.90;;;;;;4861444;29;19928;-85
2023/10/10 10:29:22;;;;;;;;;;;20.00;99.90;;;;;;4861136;29;20391;-84
2023/10/10 10:31:51;;;;;;;;;;;20.00;99.90;;;;;;4860640;29;20260;-84
2023/10/10 10:34:32;;;;;;;;;;;20.10;99.90;;;;;;4861445;29;19978;-82
2023/10/10 10:37:19;;;;;;;;;;;20.20;99.90;;;;;;4861451;29;20406;-84
2023/10/10 10:42:34;;;;;;;;;;;20.50;99.90;;;;;;4861297;29;19939;-85
2023/10/10 10:45:23;;;;;;;;;;;20.50;99.90;;;;;;4861774;29;20084;-85
2023/10/10 10:48:07;;;;;;;;;;;20.40;99.90;;;;;;4861272;29;20074;-83
2023/10/10 10:50:40;;;;;;;;;;;20.40;99.90;;;;;;4860825;29;19935;-82
2023/10/10 10:53:21;;;;;;;;;;;20.50;99.90;;;;;;4864871;29;19935;-85
2023/10/10 10:55:59;;;;;;;;;;;20.60;99.90;;;;;;4864997;29;19934;-87
2023/10/10 10:58:59;;;;;;;;;;;20.70;99.90;;;;;;4864491;29;19976;-86
2023/10/10 11:01:24;;;;;;;;;;;20.80;99.90;;;;;;4863032;29;20077;-82
2023/10/10 11:03:57;;;;;;;;;;;20.90;99.90;;;;;;4864625;29;20027;-87
2023/10/10 11:06:24;;;;;;;;;;;21.00;99.90;;;;;;4864516;29;20423;-85
2023/10/10 11:09:09;;;;;;;;;;;21.20;99.90;;;;;;4865226;29;19984;-83
2023/10/10 11:14:00;;;;;;;;;;;21.40;99.90;;;;;;4864689;29;20031;-86
2023/10/10 11:16:39;;;;;;;;;;;21.60;99.90;;;;;;4863781;29;20036;-85
2023/10/10 11:22:00;;;;;;;;;;;21.80;99.90;;;;;;4864569;29;19928;-83
2023/10/10 11:24:29;;;;;;;;;;;21.90;99.90;;;;;;4864367;29;19971;-85
2023/10/10 11:27:07;;;;;;;;;;;22.00;99.90;;;;;;4864495;29;19928;-84
2023/10/10 11:32:11;;;;;;;;;;;22.10;99.90;;;;;;4863388;29;20441;-87
2023/10/10 11:34:46;;;;;;;;;;;22.10;99.90;;;;;;4864028;29;19928;-86
2023/10/10 11:37:17;;;;;;;;;;;22.10;99.90;;;;;;4864478;29;19986;-89
2023/10/10 11:39:53;;;;;;;;;;;22.00;99.90;;;;;;4864111;29;19928;-85
2023/10/10 11:42:24;;;;;;;;;;;22.10;99.90;;;;;;4864379;29;19928;-85
2023/10/10 11:44:53;;;;;;;;;;;22.10;99.90;;;;;;4864133;29;19935;-86
2023/10/10 11:47:24;;;;;;;;;;;22.10;99.90;;;;;;4862788;29;19928;-85
2023/10/10 11:50:00;;;;;;;;;;;22.10;99.90;;;;;;4864054;29;20122;-86
2023/10/10 11:52:27;;;;;;;;;;;22.10;99.90;;;;;;4864070;29;19975;-84
2023/10/10 11:54:55;;;;;;;;;;;22.20;99.90;;;;;;4863746;29;19928;-85
2023/10/10 11:57:33;;;;;;;;;;;22.20;99.90;;;;;;4862592;29;19939;-83
2023/10/10 12:00:07;;;;;;;;;;;22.20;99.90;;;;;;4863085;29;19977;-83
2023/10/10 12:02:42;;;;;;;;;;;22.30;99.90;;;;;;4865274;29;19929;-88
2023/10/10 12:05:35;;;;;;;;;;;22.20;99.90;;;;;;4864160;29;19935;-85
2023/10/10 12:07:53;;;;;;;;;;;22.20;99.90;;;;;;4863441;29;19928;-84
2023/10/10 12:10:23;;;;;;;;;;;22.10;99.90;;;;;;4862738;29;19980;-85
2023/10/10 12:12:52;;;;;;;;;;;22.10;99.90;;;;;;4863615;29;19931;-83
2023/10/10 12:15:26;;;;;;;;;;;22.00;99.90;;;;;;4863568;29;20390;-84
2023/10/10 12:17:52;;;;;;;;;;;22.00;99.90;;;;;;4862663;29;19928;-82
2023/10/10 12:20:18;;;;;;;;;;;22.00;99.90;;;;;;4863398;29;19934;-88
2023/10/10 12:22:44;;;;;;;;;;;21.90;99.90;;;;;;4863442;29;20015;-84
2023/10/10 12:25:13;;;;;;;;;;;21.80;99.90;;;;;;4863399;29;20350;-84
2023/10/10 12:27:46;;;;;;;;;;;21.80;99.90;;;;;;4863828;29;19928;-83
2023/10/10 12:30:18;;;;;;;;;;;21.90;99.90;;;;;;4863759;29;20356;-84
2023/10/10 12:32:47;;;;;;;;;;;22.00;99.90;;;;;;4864052;29;19951;-85
2023/10/10 12:35:12;;;;;;;;;;;22.10;99.90;;;;;;4862539;29;19932;-85
2023/10/10 12:37:38;;;;;;;;;;;22.10;99.90;;;;;;4862398;29;19928;-85
2023/10/10 12:40:09;;;;;;;;;;;22.10;99.90;;;;;;4863130;29;19971;-85
2023/10/10 12:42:35;;;;;;;;;;;22.20;99.90;;;;;;4863067;29;20023;-86
2023/10/10 12:45:01;;;;;;;;;;;22.10;99.90;;;;;;4847578;29;19980;-83
2023/10/10 12:47:31;;;;;;;;;;;22.00;99.90;;;;;;4862930;29;19928;-82
2023/10/10 12:50:13;;;;;;;;;;;21.80;99.90;;;;;;4862940;29;19932;-85
2023/10/10 12:52:45;;;;;;;;;;;21.70;99.90;;;;;;4863735;29;20007;-83
2023/10/10 12:55:11;;;;;;;;;;;21.60;99.90;;;;;;4863347;29;20075;-87
2023/10/10 12:57:38;;;;;;;;;;;21.60;99.90;;;;;;4863351;29;19992;-85
2023/10/10 13:00:23;;;;;;;;;;;21.60;99.90;;;;;;4862575;29;20007;-85
2023/10/10 13:02:53;;;;;;;;;;;21.60;99.90;;;;;;4862581;29;20371;-83
2023/10/10 13:05:26;;;;;;;;;;;21.50;99.90;;;;;;4862555;29;20364;-86
2023/10/10 13:07:58;;;;;;;;;;;21.50;99.90;;;;;;4861281;29;19928;-84
2023/10/10 13:10:30;;;;;;;;;;;21.50;99.90;;;;;;4862619;29;19957;-82
2023/10/10 13:12:56;;;;;;;;;;;21.50;99.90;;;;;;4861628;29;20317;-84
2023/10/10 13:15:29;;;;;;;;;;;21.50;99.90;;;;;;4862658;29;20027;-82
2023/10/10 13:20:43;;;;;;;;;;;21.40;99.90;;;;;;4862805;29;19951;-83
2023/10/10 13:23:09;;;;;;;;;;;21.40;99.90;;;;;;4862354;29;19928;-83
2023/10/10 13:25:37;;;;;;;;;;;21.40;99.90;;;;;;4862454;29;19935;-83
2023/10/10 13:28:09;;;;;;;;;;;21.30;99.90;;;;;;4861354;29;19935;-84
2023/10/10 13:30:46;;;;;;;;;;;21.30;99.90;;;;;;4861581;29;19935;-86
2023/10/10 13:33:12;;;;;;;;;;;21.30;99.90;;;;;;4861589;29;20022;-85
2023/10/10 13:35:38;;;;;;;;;;;21.30;99.90;;;;;;4861757;29;20023;-84
2023/10/10 13:38:05;;;;;;;;;;;21.30;99.90;;;;;;4862657;29;20453;-84
2023/10/10 13:40:37;;;;;;;;;;;21.30;99.90;;;;;;4860868;29;19932;-84
2023/10/10 13:43:09;;;;;;;;;;;21.30;99.90;;;;;;4862924;29;19928;-88
2023/10/10 13:45:37;;;;;;;;;;;21.30;99.90;;;;;;4861094;29;19928;-84
2023/10/10 13:48:09;;;;;;;;;;;21.40;99.90;;;;;;4861079;29;20015;-84
2023/10/10 13:50:41;;;;;;;;;;;21.40;99.90;;;;;;4861926;29;20460;-84
2023/10/10 13:53:12;;;;;;;;;;;21.40;99.90;;;;;;4862268;29;19928;-87
2023/10/10 13:55:41;;;;;;;;;;;21.40;99.90;;;;;;4861659;29;20291;-87
2023/10/10 13:58:10;;;;;;;;;;;21.30;99.90;;;;;;4861546;29;20394;-84
2023/10/10 14:00:37;;;;;;;;;;;21.30;99.90;;;;;;4861576;29;20444;-84
2023/10/10 14:03:05;;;;;;;;;;;21.30;99.90;;;;;;4861759;29;19983;-83
2023/10/10 14:05:33;;;;;;;;;;;21.30;99.90;;;;;;4860825;29;20051;-83
2023/10/10 14:08:00;;;;;;;;;;;21.30;99.90;;;;;;4862001;29;20022;-84
2023/10/10 14:10:26;;;;;;;;;;;21.20;99.90;;;;;;4860724;29;20360;-88
2023/10/10 14:12:51;;;;;;;;;;;21.20;99.90;;;;;;4861685;29;19935;-87
2023/10/10 14:15:20;;;;;;;;;;;21.20;99.90;;;;;;4861641;29;20344;-85
2023/10/10 14:17:46;;;;;;;;;;;21.10;99.90;;;;;;4845151;29;19928;-84
2023/10/10 14:20:21;;;;;;;;;;;21.20;99.90;;;;;;4860432;29;20023;-84
2023/10/10 14:22:49;;;;;;;;;;;21.10;99.90;;;;;;4860652;29;19932;-91
2023/10/10 14:25:15;;;;;;;;;;;21.10;99.90;;;;;;4844612;29;19924;-84
2023/10/10 14:27:43;;;;;;;;;;;21.20;99.90;;;;;;4861606;29;19924;-87
2023/10/10 14:30:20;;;;;;;;;;;21.20;99.90;;;;;;4860552;29;19924;-88
2023/10/10 14:32:53;;;;;;;;;;;21.30;99.90;;;;;;4860923;29;19930;-83
2023/10/10 14:35:22;;;;;;;;;;;21.30;99.90;;;;;;4860867;29;20245;-85
2023/10/10 14:37:50;;;;;;;;;;;21.30;99.90;;;;;;4862213;29;19924;-83
2023/10/10 14:40:16;;;;;;;;;;;21.30;99.90;;;;;;4861930;29;19928;-86
2023/10/10 14:42:42;;;;;;;;;;;21.30;99.90;;;;;;4861763;29;19972;-86
2023/10/10 14:45:07;;;;;;;;;;;21.30;99.90;;;;;;4863533;29;19931;-88
2023/10/10 14:47:36;;;;;;;;;;;21.30;99.90;;;;;;4849817;29;19924;-87
2023/10/10 14:50:07;;;;;;;;;;;21.20;99.90;;;;;;4847004;29;19940;-85
2023/10/10 14:52:39;;;;;;;;;;;21.10;99.90;;;;;;4861151;29;19924;-84
2023/10/10 14:55:18;;;;;;;;;;;21.10;99.90;;;;;;4860098;29;20346;-84
2023/10/10 14:57:43;;;;;;;;;;;21.00;99.90;;;;;;4860175;29;19924;-84
2023/10/10 15:00:17;;;;;;;;;;;20.90;99.90;;;;;;4860744;29;19930;-85
2023/10/10 15:02:43;;;;;;;;;;;20.90;99.90;;;;;;4860507;29;20019;-85
2023/10/10 15:05:11;;;;;;;;;;;20.80;99.90;;;;;;4861091;29;19971;-84
2023/10/10 15:07:41;;;;;;;;;;;20.70;99.90;;;;;;4861268;29;19928;-84
2023/10/10 15:10:07;;;;;;;;;;;20.70;99.90;;;;;;4861321;29;19975;-83
2023/10/10 15:12:33;;;;;;;;;;;20.60;99.90;;;;;;4861170;29;19929;-83
2023/10/10 15:15:00;;;;;;;;;;;20.50;99.90;;;;;;4861310;29;20398;-83
2023/10/10 15:17:28;;;;;;;;;;;20.50;99.90;;;;;;4861646;29;19974;-83
2023/10/10 15:19:54;;;;;;;;;;;20.40;99.90;;;;;;4845256;29;19980;-83
2023/10/10 15:22:19;;;;;;;;;;;20.40;99.90;;;;;;4861505;29;19928;-84
2023/10/10 15:24:52;;;;;;;;;;;20.40;99.90;;;;;;4860873;29;19930;-84
2023/10/10 15:27:19;;;;;;;;;;;20.30;99.90;;;;;;4860314;29;19979;-84
2023/10/10 15:29:44;;;;;;;;;;;20.30;99.90;;;;;;4860822;29;19928;-83
2023/10/10 15:32:13;;;;;;;;;;;20.30;99.90;;;;;;4860772;29;19987;-89
2023/10/10 15:34:40;;;;;;;;;;;20.30;99.90;;;;;;4845143;29;19928;-86
2023/10/10 15:37:14;;;;;;;;;;;20.30;99.90;;;;;;4861615;29;19935;-89
2023/10/10 15:39:43;;;;;;;;;;;20.20;99.90;;;;;;4847764;29;19936;-83
2023/10/10 15:42:10;;;;;;;;;;;20.20;99.90;;;;;;4863340;29;19932;-83
2023/10/10 15:44:40;;;;;;;;;;;20.20;99.90;;;;;;4864006;29;19983;-84
2023/10/10 15:47:06;;;;;;;;;;;20.20;99.90;;;;;;4862933;29;19941;-84
2023/10/10 15:49:32;;;;;;;;;;;20.20;99.90;;;;;;4863787;29;19957;-86
2023/10/10 15:52:03;;;;;;;;;;;20.20;99.90;;;;;;4863754;29;20352;-88
2023/10/10 15:54:29;;;;;;;;;;;20.20;99.90;;;;;;4863784;29;19935;-84
2023/10/10 15:56:54;;;;;;;;;;;20.20;99.90;;;;;;4862884;29;19928;-83
2023/10/10 15:59:20;;;;;;;;;;;20.20;99.90;;;;;;4862675;29;19932;-85
2023/10/10 16:01:47;;;;;;;;;;;20.20;99.90;;;;;;4862500;29;20321;-82
2023/10/10 16:04:13;;;;;;;;;;;20.20;99.90;;;;;;4863586;29;19928;-84
2023/10/10 16:06:40;;;;;;;;;;;20.10;99.90;;;;;;4863586;29;19928;-83
2023/10/10 16:09:19;;;;;;;;;;;20.10;99.90;;;;;;4863275;29;19929;-84
2023/10/10 16:11:52;;;;;;;;;;;20.00;99.90;;;;;;4864266;29;20079;-81
2023/10/10 16:14:18;;;;;;;;;;;19.90;99.90;;;;;;4863333;29;19935;-83
2023/10/10 16:16:45;;;;;;;;;;;19.90;99.90;;;;;;4862808;29;19928;-83
2023/10/10 16:19:12;;;;;;;;;;;19.80;99.90;;;;;;4862315;29;20291;-83
2023/10/10 16:21:40;;;;;;;;;;;19.70;99.90;;;;;;4862601;29;19928;-83
2023/10/10 16:24:07;;;;;;;;;;;19.60;99.90;;;;;;4863242;29;19975;-83
2023/10/10 16:26:32;;;;;;;;;;;19.60;99.90;;;;;;4847862;29;19928;-82
2023/10/10 16:28:58;;;;;;;;;;;19.50;99.90;;;;;;4877962;29;19934;-84
2023/10/10 16:31:31;;;;;;;;;;;19.40;99.90;;;;;;4862450;29;20383;-89
2023/10/10 16:33:57;;;;;;;;;;;19.40;99.90;;;;;;4863562;29;19935;-84
2023/10/10 16:36:23;;;;;;;;;;;19.30;99.90;;;;;;4862825;29;20282;-85
2023/10/10 16:38:52;;;;;;;;;;;19.20;99.90;;;;;;4863125;29;20011;-83
2023/10/10 16:41:18;;;;;;;;;;;19.10;99.90;;;;;;4863667;29;19935;-83
2023/10/10 16:43:46;;;;;;;;;;;19.10;99.90;;;;;;4863405;29;19928;-85
2023/10/10 16:46:12;;;;;;;;;;;19.00;99.90;;;;;;4862018;29;19936;-88
2023/10/10 16:48:47;;;;;;;;;;;18.90;99.90;;;;;;4862358;29;19928;-91
2023/10/10 16:51:13;;;;;;;;;;;18.90;99.90;;;;;;4863005;29;19928;-84
2023/10/10 16:53:39;;;;;;;;;;;18.70;99.90;;;;;;4862837;29;19928;-83
2023/10/10 16:56:14;;;;;;;;;;;18.70;99.90;;;;;;4862800;29;20023;-83
2023/10/10 16:58:40;;;;;;;;;;;18.70;99.90;;;;;;4861664;29;19929;-84
2023/10/10 17:01:06;;;;;;;;;;;18.60;99.90;;;;;;4845718;29;19983;-84
2023/10/10 17:03:33;;;;;;;;;;;18.60;99.90;;;;;;4862118;29;20139;-84
2023/10/10 17:05:59;;;;;;;;;;;18.50;99.90;;;;;;4861788;29;19928;-85
2023/10/10 17:08:25;;;;;;;;;;;18.50;99.90;;;;;;4862335;29;19928;-84
2023/10/10 17:10:58;;;;;;;;;;;18.40;99.90;;;;;;4861963;29;19976;-85
2023/10/10 17:13:23;;;;;;;;;;;18.30;99.90;;;;;;4862438;29;19928;-87
2023/10/10 17:15:49;;;;;;;;;;;18.30;99.90;;;;;;4863071;29;20391;-85
2023/10/10 17:18:15;;;;;;;;;;;18.20;99.90;;;;;;4861238;29;19928;-84
2023/10/10 17:20:40;;;;;;;;;;;18.20;99.90;;;;;;4861231;29;19932;-85
2023/10/10 17:23:06;;;;;;;;;;;18.10;99.90;;;;;;4861428;29;19983;-89
2023/10/10 17:25:34;;;;;;;;;;;18.10;99.90;;;;;;4861218;29;19978;-84